<?xml version="1.0" encoding="UTF-8" standalone="no" ?>
<gpx xmlns="http://www.topografix.com/GPX/1/1" xmlns:xsi="http://www.w3.org/2001/XMLSchema-instance" xsi:schemaLocation="http://www.topografix.com/GPX/1/1 http://www.topografix.com/GPX/1/1/gpx.xsd" version="1.1" creator="VisuGPX - https://www.visugpx.com">
  <metadata>
    <name>77-Denecourt 17</name>
    <desc><![CDATA[Dpt au Pk Rocher des Princes sur la D58
trois points de vue,rocher le carosse,puits fondu.]]></desc>
  </metadata>
  <trk>
    <name><![CDATA[Den 17 Pk rocher princes haut mont]]></name>
    <trkseg>
      <trkpt lat="48.37279" lon="2.74921">
        <ele>95</ele>
        <time>2017-03-05T14:48:06Z</time>
      </trkpt>
      <trkpt lat="48.37261" lon="2.7491">
        <ele>96</ele>
        <time>2017-03-05T14:48:11Z</time>
      </trkpt>
      <trkpt lat="48.37239" lon="2.74894">
        <ele>99</ele>
        <time>2017-03-05T14:48:16Z</time>
      </trkpt>
      <trkpt lat="48.37217" lon="2.74875">
        <ele>102</ele>
        <time>2017-03-05T14:48:21Z</time>
      </trkpt>
      <trkpt lat="48.37191" lon="2.74867">
        <ele>106</ele>
        <time>2017-03-05T14:48:26Z</time>
      </trkpt>
      <trkpt lat="48.37169" lon="2.74849">
        <ele>108</ele>
        <time>2017-03-05T14:48:31Z</time>
      </trkpt>
      <trkpt lat="48.37144" lon="2.74851">
        <ele>111</ele>
        <time>2017-03-05T14:48:36Z</time>
      </trkpt>
      <trkpt lat="48.37113" lon="2.74844">
        <ele>115</ele>
        <time>2017-03-05T14:48:41Z</time>
      </trkpt>
      <trkpt lat="48.37082" lon="2.74835">
        <ele>118</ele>
        <time>2017-03-05T14:48:46Z</time>
      </trkpt>
      <trkpt lat="48.37062" lon="2.74825">
        <ele>121</ele>
        <time>2017-03-05T14:48:51Z</time>
      </trkpt>
      <trkpt lat="48.37057" lon="2.74877">
        <ele>123</ele>
        <time>2017-03-05T14:48:56Z</time>
      </trkpt>
      <trkpt lat="48.37064" lon="2.74925">
        <ele>125</ele>
        <time>2017-03-05T14:49:01Z</time>
      </trkpt>
      <trkpt lat="48.37072" lon="2.7497">
        <ele>127</ele>
        <time>2017-03-05T14:49:06Z</time>
      </trkpt>
      <trkpt lat="48.37076" lon="2.74997">
        <ele>128</ele>
        <time>2017-03-05T14:49:11Z</time>
      </trkpt>
      <trkpt lat="48.37094" lon="2.75027">
        <ele>126</ele>
        <time>2017-03-05T14:49:16Z</time>
      </trkpt>
      <trkpt lat="48.37113" lon="2.75057">
        <ele>123</ele>
        <time>2017-03-05T14:49:21Z</time>
      </trkpt>
      <trkpt lat="48.37108" lon="2.75077">
        <ele>124</ele>
        <time>2017-03-05T14:49:26Z</time>
      </trkpt>
      <trkpt lat="48.3709" lon="2.75099">
        <ele>127</ele>
        <time>2017-03-05T14:49:31Z</time>
      </trkpt>
      <trkpt lat="48.37075" lon="2.75116">
        <ele>128</ele>
        <time>2017-03-05T14:49:36Z</time>
      </trkpt>
      <trkpt lat="48.37057" lon="2.75143">
        <ele>127</ele>
        <time>2017-03-05T14:49:41Z</time>
      </trkpt>
      <trkpt lat="48.37031" lon="2.75177">
        <ele>127</ele>
        <time>2017-03-05T14:49:46Z</time>
      </trkpt>
      <trkpt lat="48.3701" lon="2.75208">
        <ele>127</ele>
        <time>2017-03-05T14:49:51Z</time>
      </trkpt>
      <trkpt lat="48.3699" lon="2.75249">
        <ele>127</ele>
        <time>2017-03-05T14:49:56Z</time>
      </trkpt>
      <trkpt lat="48.3697" lon="2.75278">
        <ele>127</ele>
        <time>2017-03-05T14:50:01Z</time>
      </trkpt>
      <trkpt lat="48.36953" lon="2.75308">
        <ele>126</ele>
        <time>2017-03-05T14:50:06Z</time>
      </trkpt>
      <trkpt lat="48.36942" lon="2.75335">
        <ele>126</ele>
        <time>2017-03-05T14:50:11Z</time>
      </trkpt>
      <trkpt lat="48.36942" lon="2.75361">
        <ele>124</ele>
        <time>2017-03-05T14:50:16Z</time>
      </trkpt>
      <trkpt lat="48.36931" lon="2.75358">
        <ele>125</ele>
        <time>2017-03-05T14:50:21Z</time>
      </trkpt>
      <trkpt lat="48.36916" lon="2.75341">
        <ele>127</ele>
        <time>2017-03-05T14:50:26Z</time>
      </trkpt>
      <trkpt lat="48.36901" lon="2.75326">
        <ele>129</ele>
        <time>2017-03-05T14:50:31Z</time>
      </trkpt>
      <trkpt lat="48.36888" lon="2.75305">
        <ele>130</ele>
        <time>2017-03-05T14:50:36Z</time>
      </trkpt>
      <trkpt lat="48.36873" lon="2.75289">
        <ele>132</ele>
        <time>2017-03-05T14:50:41Z</time>
      </trkpt>
      <trkpt lat="48.36856" lon="2.75278">
        <ele>133</ele>
        <time>2017-03-05T14:50:46Z</time>
      </trkpt>
      <trkpt lat="48.36837" lon="2.75273">
        <ele>135</ele>
        <time>2017-03-05T14:50:51Z</time>
      </trkpt>
      <trkpt lat="48.36821" lon="2.75263">
        <ele>135</ele>
        <time>2017-03-05T14:50:56Z</time>
      </trkpt>
      <trkpt lat="48.36803" lon="2.75255">
        <ele>135</ele>
        <time>2017-03-05T14:51:01Z</time>
      </trkpt>
      <trkpt lat="48.36785" lon="2.7525">
        <ele>135</ele>
        <time>2017-03-05T14:51:06Z</time>
      </trkpt>
      <trkpt lat="48.36767" lon="2.75246">
        <ele>136</ele>
        <time>2017-03-05T14:51:11Z</time>
      </trkpt>
      <trkpt lat="48.36748" lon="2.75243">
        <ele>136</ele>
        <time>2017-03-05T14:51:16Z</time>
      </trkpt>
      <trkpt lat="48.36729" lon="2.75238">
        <ele>134</ele>
        <time>2017-03-05T14:51:21Z</time>
      </trkpt>
      <trkpt lat="48.36701" lon="2.75258">
        <ele>132</ele>
        <time>2017-03-05T14:51:26Z</time>
      </trkpt>
      <trkpt lat="48.36685" lon="2.75271">
        <ele>130</ele>
        <time>2017-03-05T14:51:31Z</time>
      </trkpt>
      <trkpt lat="48.36663" lon="2.75281">
        <ele>127</ele>
        <time>2017-03-05T14:51:36Z</time>
      </trkpt>
      <trkpt lat="48.3665" lon="2.75294">
        <ele>124</ele>
        <time>2017-03-05T14:51:41Z</time>
      </trkpt>
      <trkpt lat="48.36633" lon="2.75301">
        <ele>121</ele>
        <time>2017-03-05T14:51:46Z</time>
      </trkpt>
      <trkpt lat="48.36615" lon="2.75304">
        <ele>118</ele>
        <time>2017-03-05T14:51:51Z</time>
      </trkpt>
      <trkpt lat="48.36594" lon="2.7531">
        <ele>115</ele>
        <time>2017-03-05T14:51:56Z</time>
      </trkpt>
      <trkpt lat="48.36579" lon="2.75318">
        <ele>112</ele>
        <time>2017-03-05T14:52:01Z</time>
      </trkpt>
      <trkpt lat="48.3656" lon="2.75322">
        <ele>110</ele>
        <time>2017-03-05T14:52:06Z</time>
      </trkpt>
      <trkpt lat="48.36542" lon="2.75328">
        <ele>107</ele>
        <time>2017-03-05T14:52:11Z</time>
      </trkpt>
      <trkpt lat="48.36524" lon="2.75331">
        <ele>105</ele>
        <time>2017-03-05T14:52:16Z</time>
      </trkpt>
      <trkpt lat="48.36506" lon="2.75335">
        <ele>103</ele>
        <time>2017-03-05T14:52:21Z</time>
      </trkpt>
      <trkpt lat="48.3649" lon="2.75337">
        <ele>102</ele>
        <time>2017-03-05T14:52:26Z</time>
      </trkpt>
      <trkpt lat="48.36474" lon="2.75349">
        <ele>102</ele>
        <time>2017-03-05T14:52:31Z</time>
      </trkpt>
      <trkpt lat="48.36447" lon="2.75369">
        <ele>102</ele>
        <time>2017-03-05T14:52:36Z</time>
      </trkpt>
      <trkpt lat="48.3642" lon="2.75385">
        <ele>101</ele>
        <time>2017-03-05T14:52:41Z</time>
      </trkpt>
      <trkpt lat="48.36387" lon="2.75411">
        <ele>101</ele>
        <time>2017-03-05T14:52:46Z</time>
      </trkpt>
      <trkpt lat="48.36358" lon="2.75432">
        <ele>101</ele>
        <time>2017-03-05T14:52:51Z</time>
      </trkpt>
      <trkpt lat="48.36338" lon="2.75446">
        <ele>102</ele>
        <time>2017-03-05T14:52:56Z</time>
      </trkpt>
      <trkpt lat="48.3632" lon="2.75461">
        <ele>102</ele>
        <time>2017-03-05T14:53:01Z</time>
      </trkpt>
      <trkpt lat="48.363" lon="2.75472">
        <ele>102</ele>
        <time>2017-03-05T14:53:06Z</time>
      </trkpt>
      <trkpt lat="48.36271" lon="2.7552">
        <ele>103</ele>
        <time>2017-03-05T14:53:11Z</time>
      </trkpt>
      <trkpt lat="48.36248" lon="2.75528">
        <ele>103</ele>
        <time>2017-03-05T14:53:16Z</time>
      </trkpt>
      <trkpt lat="48.36227" lon="2.75561">
        <ele>103</ele>
        <time>2017-03-05T14:53:21Z</time>
      </trkpt>
      <trkpt lat="48.3619" lon="2.75587">
        <ele>103</ele>
        <time>2017-03-05T14:53:26Z</time>
      </trkpt>
      <trkpt lat="48.36178" lon="2.75557">
        <ele>104</ele>
        <time>2017-03-05T14:53:31Z</time>
      </trkpt>
      <trkpt lat="48.36158" lon="2.75519">
        <ele>107</ele>
        <time>2017-03-05T14:53:36Z</time>
      </trkpt>
      <trkpt lat="48.36139" lon="2.75482">
        <ele>110</ele>
        <time>2017-03-05T14:53:41Z</time>
      </trkpt>
      <trkpt lat="48.36121" lon="2.75458">
        <ele>112</ele>
        <time>2017-03-05T14:53:46Z</time>
      </trkpt>
      <trkpt lat="48.36106" lon="2.75423">
        <ele>114</ele>
        <time>2017-03-05T14:53:51Z</time>
      </trkpt>
      <trkpt lat="48.36095" lon="2.75395">
        <ele>116</ele>
        <time>2017-03-05T14:53:56Z</time>
      </trkpt>
      <trkpt lat="48.36097" lon="2.75365">
        <ele>117</ele>
        <time>2017-03-05T14:54:01Z</time>
      </trkpt>
      <trkpt lat="48.361" lon="2.75337">
        <ele>118</ele>
        <time>2017-03-05T14:54:06Z</time>
      </trkpt>
      <trkpt lat="48.36107" lon="2.75313">
        <ele>120</ele>
        <time>2017-03-05T14:54:11Z</time>
      </trkpt>
      <trkpt lat="48.36114" lon="2.75239">
        <ele>125</ele>
        <time>2017-03-05T14:54:16Z</time>
      </trkpt>
      <trkpt lat="48.36108" lon="2.75218">
        <ele>126</ele>
        <time>2017-03-05T14:54:21Z</time>
      </trkpt>
      <trkpt lat="48.3609" lon="2.75251">
        <ele>126</ele>
        <time>2017-03-05T14:54:26Z</time>
      </trkpt>
      <trkpt lat="48.36074" lon="2.75261">
        <ele>124</ele>
        <time>2017-03-05T14:54:31Z</time>
      </trkpt>
      <trkpt lat="48.36059" lon="2.75249">
        <ele>122</ele>
        <time>2017-03-05T14:54:36Z</time>
      </trkpt>
      <trkpt lat="48.36055" lon="2.75228">
        <ele>122</ele>
        <time>2017-03-05T14:54:41Z</time>
      </trkpt>
      <trkpt lat="48.3606" lon="2.75197">
        <ele>123</ele>
        <time>2017-03-05T14:54:46Z</time>
      </trkpt>
      <trkpt lat="48.36085" lon="2.75192">
        <ele>128</ele>
        <time>2017-03-05T14:54:51Z</time>
      </trkpt>
      <trkpt lat="48.36106" lon="2.75198">
        <ele>127</ele>
        <time>2017-03-05T14:54:56Z</time>
      </trkpt>
      <trkpt lat="48.36109" lon="2.75161">
        <ele>128</ele>
        <time>2017-03-05T14:55:01Z</time>
      </trkpt>
      <trkpt lat="48.36115" lon="2.7513">
        <ele>126</ele>
        <time>2017-03-05T14:55:06Z</time>
      </trkpt>
      <trkpt lat="48.36118" lon="2.75102">
        <ele>126</ele>
        <time>2017-03-05T14:55:11Z</time>
      </trkpt>
      <trkpt lat="48.36121" lon="2.75075">
        <ele>126</ele>
        <time>2017-03-05T14:55:16Z</time>
      </trkpt>
      <trkpt lat="48.36125" lon="2.75036">
        <ele>127</ele>
        <time>2017-03-05T14:55:21Z</time>
      </trkpt>
      <trkpt lat="48.36123" lon="2.75012">
        <ele>128</ele>
        <time>2017-03-05T14:55:26Z</time>
      </trkpt>
      <trkpt lat="48.36114" lon="2.74962">
        <ele>128</ele>
        <time>2017-03-05T14:55:31Z</time>
      </trkpt>
      <trkpt lat="48.36109" lon="2.7491">
        <ele>129</ele>
        <time>2017-03-05T14:55:36Z</time>
      </trkpt>
      <trkpt lat="48.36104" lon="2.74872">
        <ele>131</ele>
        <time>2017-03-05T14:55:41Z</time>
      </trkpt>
      <trkpt lat="48.361" lon="2.74849">
        <ele>131</ele>
        <time>2017-03-05T14:55:46Z</time>
      </trkpt>
      <trkpt lat="48.36092" lon="2.74827">
        <ele>132</ele>
        <time>2017-03-05T14:55:51Z</time>
      </trkpt>
      <trkpt lat="48.36084" lon="2.74798">
        <ele>133</ele>
        <time>2017-03-05T14:55:56Z</time>
      </trkpt>
      <trkpt lat="48.36067" lon="2.74766">
        <ele>132</ele>
        <time>2017-03-05T14:56:01Z</time>
      </trkpt>
      <trkpt lat="48.36055" lon="2.74737">
        <ele>132</ele>
        <time>2017-03-05T14:56:06Z</time>
      </trkpt>
      <trkpt lat="48.36042" lon="2.74707">
        <ele>132</ele>
        <time>2017-03-05T14:56:11Z</time>
      </trkpt>
      <trkpt lat="48.36022" lon="2.74668">
        <ele>133</ele>
        <time>2017-03-05T14:56:16Z</time>
      </trkpt>
      <trkpt lat="48.36014" lon="2.74647">
        <ele>133</ele>
        <time>2017-03-05T14:56:21Z</time>
      </trkpt>
      <trkpt lat="48.36003" lon="2.74606">
        <ele>133</ele>
        <time>2017-03-05T14:56:26Z</time>
      </trkpt>
      <trkpt lat="48.36009" lon="2.74574">
        <ele>133</ele>
        <time>2017-03-05T14:56:31Z</time>
      </trkpt>
      <trkpt lat="48.36012" lon="2.7453">
        <ele>134</ele>
        <time>2017-03-05T14:56:36Z</time>
      </trkpt>
      <trkpt lat="48.36017" lon="2.74488">
        <ele>134</ele>
        <time>2017-03-05T14:56:41Z</time>
      </trkpt>
      <trkpt lat="48.36021" lon="2.74448">
        <ele>133</ele>
        <time>2017-03-05T14:56:46Z</time>
      </trkpt>
      <trkpt lat="48.36026" lon="2.74409">
        <ele>133</ele>
        <time>2017-03-05T14:56:51Z</time>
      </trkpt>
      <trkpt lat="48.36034" lon="2.74363">
        <ele>132</ele>
        <time>2017-03-05T14:56:56Z</time>
      </trkpt>
      <trkpt lat="48.36032" lon="2.74323">
        <ele>131</ele>
        <time>2017-03-05T14:57:01Z</time>
      </trkpt>
      <trkpt lat="48.36024" lon="2.74279">
        <ele>131</ele>
        <time>2017-03-05T14:57:06Z</time>
      </trkpt>
      <trkpt lat="48.36019" lon="2.74243">
        <ele>130</ele>
        <time>2017-03-05T14:57:11Z</time>
      </trkpt>
      <trkpt lat="48.3601" lon="2.7421">
        <ele>128</ele>
        <time>2017-03-05T14:57:16Z</time>
      </trkpt>
      <trkpt lat="48.36015" lon="2.74198">
        <ele>126</ele>
        <time>2017-03-05T14:57:21Z</time>
      </trkpt>
      <trkpt lat="48.35998" lon="2.74188">
        <ele>126</ele>
        <time>2017-03-05T14:57:26Z</time>
      </trkpt>
      <trkpt lat="48.35981" lon="2.742">
        <ele>125</ele>
        <time>2017-03-05T14:57:31Z</time>
      </trkpt>
      <trkpt lat="48.35971" lon="2.74223">
        <ele>124</ele>
        <time>2017-03-05T14:57:36Z</time>
      </trkpt>
      <trkpt lat="48.35956" lon="2.74227">
        <ele>122</ele>
        <time>2017-03-05T14:57:41Z</time>
      </trkpt>
      <trkpt lat="48.35956" lon="2.74209">
        <ele>121</ele>
        <time>2017-03-05T14:57:46Z</time>
      </trkpt>
      <trkpt lat="48.35962" lon="2.74182">
        <ele>120</ele>
        <time>2017-03-05T14:57:51Z</time>
      </trkpt>
      <trkpt lat="48.35976" lon="2.74163">
        <ele>121</ele>
        <time>2017-03-05T14:57:56Z</time>
      </trkpt>
      <trkpt lat="48.35991" lon="2.74146">
        <ele>121</ele>
        <time>2017-03-05T14:58:01Z</time>
      </trkpt>
      <trkpt lat="48.36008" lon="2.74135">
        <ele>120</ele>
        <time>2017-03-05T14:58:06Z</time>
      </trkpt>
      <trkpt lat="48.36027" lon="2.74141">
        <ele>119</ele>
        <time>2017-03-05T14:58:11Z</time>
      </trkpt>
      <trkpt lat="48.3604" lon="2.74144">
        <ele>118</ele>
        <time>2017-03-05T14:58:16Z</time>
      </trkpt>
      <trkpt lat="48.36063" lon="2.74163">
        <ele>117</ele>
        <time>2017-03-05T14:58:21Z</time>
      </trkpt>
      <trkpt lat="48.36076" lon="2.74132">
        <ele>113</ele>
        <time>2017-03-05T14:58:26Z</time>
      </trkpt>
      <trkpt lat="48.36075" lon="2.74107">
        <ele>111</ele>
        <time>2017-03-05T14:58:31Z</time>
      </trkpt>
      <trkpt lat="48.36073" lon="2.7408">
        <ele>109</ele>
        <time>2017-03-05T14:58:36Z</time>
      </trkpt>
      <trkpt lat="48.36062" lon="2.74057">
        <ele>107</ele>
        <time>2017-03-05T14:58:41Z</time>
      </trkpt>
      <trkpt lat="48.3605" lon="2.74037">
        <ele>105</ele>
        <time>2017-03-05T14:58:46Z</time>
      </trkpt>
      <trkpt lat="48.36033" lon="2.74023">
        <ele>105</ele>
        <time>2017-03-05T14:58:51Z</time>
      </trkpt>
      <trkpt lat="48.36017" lon="2.7401">
        <ele>104</ele>
        <time>2017-03-05T14:58:56Z</time>
      </trkpt>
      <trkpt lat="48.36" lon="2.74001">
        <ele>103</ele>
        <time>2017-03-05T14:59:01Z</time>
      </trkpt>
      <trkpt lat="48.35983" lon="2.73985">
        <ele>101</ele>
        <time>2017-03-05T14:59:06Z</time>
      </trkpt>
      <trkpt lat="48.35965" lon="2.73981">
        <ele>100</ele>
        <time>2017-03-05T14:59:11Z</time>
      </trkpt>
      <trkpt lat="48.35948" lon="2.73973">
        <ele>99</ele>
        <time>2017-03-05T14:59:16Z</time>
      </trkpt>
      <trkpt lat="48.3593" lon="2.73963">
        <ele>98</ele>
        <time>2017-03-05T14:59:21Z</time>
      </trkpt>
      <trkpt lat="48.35888" lon="2.73959">
        <ele>96</ele>
        <time>2017-03-05T14:59:26Z</time>
      </trkpt>
      <trkpt lat="48.35864" lon="2.73945">
        <ele>95</ele>
        <time>2017-03-05T14:59:31Z</time>
      </trkpt>
      <trkpt lat="48.35883" lon="2.73931">
        <ele>95</ele>
        <time>2017-03-05T14:59:36Z</time>
      </trkpt>
      <trkpt lat="48.35906" lon="2.73923">
        <ele>95</ele>
        <time>2017-03-05T14:59:41Z</time>
      </trkpt>
      <trkpt lat="48.35923" lon="2.73914">
        <ele>95</ele>
        <time>2017-03-05T14:59:46Z</time>
      </trkpt>
      <trkpt lat="48.35941" lon="2.73905">
        <ele>94</ele>
        <time>2017-03-05T14:59:51Z</time>
      </trkpt>
      <trkpt lat="48.3596" lon="2.73896">
        <ele>94</ele>
        <time>2017-03-05T14:59:56Z</time>
      </trkpt>
      <trkpt lat="48.35978" lon="2.73888">
        <ele>93</ele>
        <time>2017-03-05T15:00:01Z</time>
      </trkpt>
      <trkpt lat="48.35995" lon="2.7388">
        <ele>93</ele>
        <time>2017-03-05T15:00:06Z</time>
      </trkpt>
      <trkpt lat="48.36013" lon="2.73873">
        <ele>92</ele>
        <time>2017-03-05T15:00:11Z</time>
      </trkpt>
      <trkpt lat="48.3603" lon="2.73868">
        <ele>92</ele>
        <time>2017-03-05T15:00:16Z</time>
      </trkpt>
      <trkpt lat="48.36049" lon="2.73893">
        <ele>93</ele>
        <time>2017-03-05T15:00:21Z</time>
      </trkpt>
      <trkpt lat="48.3606" lon="2.73924">
        <ele>95</ele>
        <time>2017-03-05T15:00:26Z</time>
      </trkpt>
      <trkpt lat="48.36085" lon="2.73963">
        <ele>97</ele>
        <time>2017-03-05T15:00:31Z</time>
      </trkpt>
      <trkpt lat="48.36096" lon="2.73985">
        <ele>98</ele>
        <time>2017-03-05T15:00:36Z</time>
      </trkpt>
      <trkpt lat="48.36112" lon="2.74003">
        <ele>98</ele>
        <time>2017-03-05T15:00:41Z</time>
      </trkpt>
      <trkpt lat="48.36133" lon="2.74055">
        <ele>100</ele>
        <time>2017-03-05T15:00:46Z</time>
      </trkpt>
      <trkpt lat="48.36157" lon="2.74098">
        <ele>99</ele>
        <time>2017-03-05T15:00:51Z</time>
      </trkpt>
      <trkpt lat="48.36177" lon="2.74128">
        <ele>100</ele>
        <time>2017-03-05T15:00:56Z</time>
      </trkpt>
      <trkpt lat="48.36174" lon="2.74154">
        <ele>102</ele>
        <time>2017-03-05T15:01:01Z</time>
      </trkpt>
      <trkpt lat="48.36164" lon="2.74179">
        <ele>104</ele>
        <time>2017-03-05T15:01:06Z</time>
      </trkpt>
      <trkpt lat="48.36159" lon="2.74205">
        <ele>107</ele>
        <time>2017-03-05T15:01:11Z</time>
      </trkpt>
      <trkpt lat="48.36155" lon="2.74233">
        <ele>110</ele>
        <time>2017-03-05T15:01:16Z</time>
      </trkpt>
      <trkpt lat="48.36145" lon="2.74287">
        <ele>116</ele>
        <time>2017-03-05T15:01:21Z</time>
      </trkpt>
      <trkpt lat="48.36149" lon="2.74316">
        <ele>117</ele>
        <time>2017-03-05T15:01:26Z</time>
      </trkpt>
      <trkpt lat="48.36145" lon="2.74345">
        <ele>119</ele>
        <time>2017-03-05T15:01:31Z</time>
      </trkpt>
      <trkpt lat="48.36145" lon="2.74373">
        <ele>121</ele>
        <time>2017-03-05T15:01:36Z</time>
      </trkpt>
      <trkpt lat="48.36142" lon="2.74404">
        <ele>124</ele>
        <time>2017-03-05T15:01:41Z</time>
      </trkpt>
      <trkpt lat="48.36138" lon="2.74431">
        <ele>126</ele>
        <time>2017-03-05T15:01:46Z</time>
      </trkpt>
      <trkpt lat="48.36137" lon="2.74458">
        <ele>127</ele>
        <time>2017-03-05T15:01:51Z</time>
      </trkpt>
      <trkpt lat="48.36134" lon="2.74485">
        <ele>129</ele>
        <time>2017-03-05T15:01:56Z</time>
      </trkpt>
      <trkpt lat="48.36131" lon="2.74512">
        <ele>130</ele>
        <time>2017-03-05T15:02:01Z</time>
      </trkpt>
      <trkpt lat="48.36128" lon="2.74547">
        <ele>130</ele>
        <time>2017-03-05T15:02:06Z</time>
      </trkpt>
      <trkpt lat="48.3613" lon="2.74568">
        <ele>130</ele>
        <time>2017-03-05T15:02:11Z</time>
      </trkpt>
      <trkpt lat="48.36128" lon="2.74596">
        <ele>131</ele>
        <time>2017-03-05T15:02:16Z</time>
      </trkpt>
      <trkpt lat="48.36135" lon="2.74625">
        <ele>131</ele>
        <time>2017-03-05T15:02:21Z</time>
      </trkpt>
      <trkpt lat="48.36132" lon="2.74657">
        <ele>133</ele>
        <time>2017-03-05T15:02:26Z</time>
      </trkpt>
      <trkpt lat="48.36141" lon="2.74681">
        <ele>133</ele>
        <time>2017-03-05T15:02:31Z</time>
      </trkpt>
      <trkpt lat="48.3615" lon="2.74701">
        <ele>132</ele>
        <time>2017-03-05T15:02:36Z</time>
      </trkpt>
      <trkpt lat="48.36161" lon="2.74722">
        <ele>132</ele>
        <time>2017-03-05T15:02:41Z</time>
      </trkpt>
      <trkpt lat="48.3617" lon="2.74747">
        <ele>132</ele>
        <time>2017-03-05T15:02:46Z</time>
      </trkpt>
      <trkpt lat="48.36183" lon="2.74765">
        <ele>131</ele>
        <time>2017-03-05T15:02:51Z</time>
      </trkpt>
      <trkpt lat="48.36207" lon="2.74764">
        <ele>128</ele>
        <time>2017-03-05T15:02:56Z</time>
      </trkpt>
      <trkpt lat="48.36226" lon="2.74753">
        <ele>125</ele>
        <time>2017-03-05T15:03:01Z</time>
      </trkpt>
      <trkpt lat="48.36228" lon="2.7473">
        <ele>124</ele>
        <time>2017-03-05T15:03:06Z</time>
      </trkpt>
      <trkpt lat="48.36216" lon="2.74717">
        <ele>125</ele>
        <time>2017-03-05T15:03:11Z</time>
      </trkpt>
      <trkpt lat="48.36209" lon="2.74689">
        <ele>125</ele>
        <time>2017-03-05T15:03:16Z</time>
      </trkpt>
      <trkpt lat="48.36203" lon="2.74662">
        <ele>124</ele>
        <time>2017-03-05T15:03:21Z</time>
      </trkpt>
      <trkpt lat="48.36214" lon="2.7464">
        <ele>121</ele>
        <time>2017-03-05T15:03:26Z</time>
      </trkpt>
      <trkpt lat="48.36229" lon="2.74623">
        <ele>118</ele>
        <time>2017-03-05T15:03:31Z</time>
      </trkpt>
      <trkpt lat="48.36243" lon="2.74602">
        <ele>115</ele>
        <time>2017-03-05T15:03:36Z</time>
      </trkpt>
      <trkpt lat="48.36261" lon="2.7459">
        <ele>113</ele>
        <time>2017-03-05T15:03:41Z</time>
      </trkpt>
      <trkpt lat="48.36277" lon="2.74575">
        <ele>111</ele>
        <time>2017-03-05T15:03:46Z</time>
      </trkpt>
      <trkpt lat="48.36294" lon="2.74558">
        <ele>109</ele>
        <time>2017-03-05T15:03:51Z</time>
      </trkpt>
      <trkpt lat="48.36309" lon="2.74542">
        <ele>108</ele>
        <time>2017-03-05T15:03:56Z</time>
      </trkpt>
      <trkpt lat="48.36327" lon="2.74532">
        <ele>106</ele>
        <time>2017-03-05T15:04:01Z</time>
      </trkpt>
      <trkpt lat="48.36345" lon="2.74527">
        <ele>106</ele>
        <time>2017-03-05T15:04:06Z</time>
      </trkpt>
      <trkpt lat="48.36363" lon="2.74525">
        <ele>106</ele>
        <time>2017-03-05T15:04:11Z</time>
      </trkpt>
      <trkpt lat="48.36382" lon="2.74521">
        <ele>107</ele>
        <time>2017-03-05T15:04:16Z</time>
      </trkpt>
      <trkpt lat="48.364" lon="2.74516">
        <ele>108</ele>
        <time>2017-03-05T15:04:21Z</time>
      </trkpt>
      <trkpt lat="48.36419" lon="2.74515">
        <ele>109</ele>
        <time>2017-03-05T15:04:26Z</time>
      </trkpt>
      <trkpt lat="48.36437" lon="2.74511">
        <ele>108</ele>
        <time>2017-03-05T15:04:31Z</time>
      </trkpt>
      <trkpt lat="48.36455" lon="2.7451">
        <ele>107</ele>
        <time>2017-03-05T15:04:36Z</time>
      </trkpt>
      <trkpt lat="48.36473" lon="2.74505">
        <ele>106</ele>
        <time>2017-03-05T15:04:41Z</time>
      </trkpt>
      <trkpt lat="48.36491" lon="2.74502">
        <ele>105</ele>
        <time>2017-03-05T15:04:46Z</time>
      </trkpt>
      <trkpt lat="48.3651" lon="2.74499">
        <ele>105</ele>
        <time>2017-03-05T15:04:51Z</time>
      </trkpt>
      <trkpt lat="48.36528" lon="2.74495">
        <ele>104</ele>
        <time>2017-03-05T15:04:56Z</time>
      </trkpt>
      <trkpt lat="48.36547" lon="2.74491">
        <ele>103</ele>
        <time>2017-03-05T15:05:01Z</time>
      </trkpt>
      <trkpt lat="48.36565" lon="2.74486">
        <ele>103</ele>
        <time>2017-03-05T15:05:06Z</time>
      </trkpt>
      <trkpt lat="48.36583" lon="2.74484">
        <ele>102</ele>
        <time>2017-03-05T15:05:11Z</time>
      </trkpt>
      <trkpt lat="48.366" lon="2.74479">
        <ele>103</ele>
        <time>2017-03-05T15:05:16Z</time>
      </trkpt>
      <trkpt lat="48.36619" lon="2.74478">
        <ele>104</ele>
        <time>2017-03-05T15:05:21Z</time>
      </trkpt>
      <trkpt lat="48.36634" lon="2.74477">
        <ele>104</ele>
        <time>2017-03-05T15:05:26Z</time>
      </trkpt>
      <trkpt lat="48.36644" lon="2.74407">
        <ele>105</ele>
        <time>2017-03-05T15:05:31Z</time>
      </trkpt>
      <trkpt lat="48.36647" lon="2.74377">
        <ele>105</ele>
        <time>2017-03-05T15:05:36Z</time>
      </trkpt>
      <trkpt lat="48.36651" lon="2.74348">
        <ele>106</ele>
        <time>2017-03-05T15:05:41Z</time>
      </trkpt>
      <trkpt lat="48.36653" lon="2.7432">
        <ele>105</ele>
        <time>2017-03-05T15:05:46Z</time>
      </trkpt>
      <trkpt lat="48.36657" lon="2.74292">
        <ele>105</ele>
        <time>2017-03-05T15:05:51Z</time>
      </trkpt>
      <trkpt lat="48.36661" lon="2.74263">
        <ele>104</ele>
        <time>2017-03-05T15:05:56Z</time>
      </trkpt>
      <trkpt lat="48.36668" lon="2.74238">
        <ele>104</ele>
        <time>2017-03-05T15:06:01Z</time>
      </trkpt>
      <trkpt lat="48.36678" lon="2.74182">
        <ele>106</ele>
        <time>2017-03-05T15:06:06Z</time>
      </trkpt>
      <trkpt lat="48.36685" lon="2.74145">
        <ele>107</ele>
        <time>2017-03-05T15:06:11Z</time>
      </trkpt>
      <trkpt lat="48.3669" lon="2.74101">
        <ele>108</ele>
        <time>2017-03-05T15:06:16Z</time>
      </trkpt>
      <trkpt lat="48.36693" lon="2.74075">
        <ele>109</ele>
        <time>2017-03-05T15:06:21Z</time>
      </trkpt>
      <trkpt lat="48.367" lon="2.74015">
        <ele>108</ele>
        <time>2017-03-05T15:06:26Z</time>
      </trkpt>
      <trkpt lat="48.36706" lon="2.73988">
        <ele>108</ele>
        <time>2017-03-05T15:06:31Z</time>
      </trkpt>
      <trkpt lat="48.36711" lon="2.73962">
        <ele>108</ele>
        <time>2017-03-05T15:06:36Z</time>
      </trkpt>
      <trkpt lat="48.36714" lon="2.73933">
        <ele>108</ele>
        <time>2017-03-05T15:06:41Z</time>
      </trkpt>
      <trkpt lat="48.36719" lon="2.7391">
        <ele>108</ele>
        <time>2017-03-05T15:06:46Z</time>
      </trkpt>
      <trkpt lat="48.36723" lon="2.73885">
        <ele>109</ele>
        <time>2017-03-05T15:06:51Z</time>
      </trkpt>
      <trkpt lat="48.36732" lon="2.73843">
        <ele>110</ele>
        <time>2017-03-05T15:06:56Z</time>
      </trkpt>
      <trkpt lat="48.36737" lon="2.73804">
        <ele>109</ele>
        <time>2017-03-05T15:07:01Z</time>
      </trkpt>
      <trkpt lat="48.36737" lon="2.73776">
        <ele>108</ele>
        <time>2017-03-05T15:07:06Z</time>
      </trkpt>
      <trkpt lat="48.36742" lon="2.73742">
        <ele>107</ele>
        <time>2017-03-05T15:07:11Z</time>
      </trkpt>
      <trkpt lat="48.36743" lon="2.73711">
        <ele>106</ele>
        <time>2017-03-05T15:07:16Z</time>
      </trkpt>
      <trkpt lat="48.36747" lon="2.73683">
        <ele>106</ele>
        <time>2017-03-05T15:07:21Z</time>
      </trkpt>
      <trkpt lat="48.3675" lon="2.7365">
        <ele>105</ele>
        <time>2017-03-05T15:07:26Z</time>
      </trkpt>
      <trkpt lat="48.36754" lon="2.73609">
        <ele>105</ele>
        <time>2017-03-05T15:07:31Z</time>
      </trkpt>
      <trkpt lat="48.36761" lon="2.7358">
        <ele>105</ele>
        <time>2017-03-05T15:07:36Z</time>
      </trkpt>
      <trkpt lat="48.36767" lon="2.73555">
        <ele>105</ele>
        <time>2017-03-05T15:07:41Z</time>
      </trkpt>
      <trkpt lat="48.36767" lon="2.73517">
        <ele>105</ele>
        <time>2017-03-05T15:07:46Z</time>
      </trkpt>
      <trkpt lat="48.36783" lon="2.73535">
        <ele>105</ele>
        <time>2017-03-05T15:07:51Z</time>
      </trkpt>
      <trkpt lat="48.36796" lon="2.73555">
        <ele>105</ele>
        <time>2017-03-05T15:07:56Z</time>
      </trkpt>
      <trkpt lat="48.36811" lon="2.73577">
        <ele>106</ele>
        <time>2017-03-05T15:08:01Z</time>
      </trkpt>
      <trkpt lat="48.36826" lon="2.73596">
        <ele>106</ele>
        <time>2017-03-05T15:08:06Z</time>
      </trkpt>
      <trkpt lat="48.36841" lon="2.73614">
        <ele>107</ele>
        <time>2017-03-05T15:08:11Z</time>
      </trkpt>
      <trkpt lat="48.36857" lon="2.73627">
        <ele>108</ele>
        <time>2017-03-05T15:08:16Z</time>
      </trkpt>
      <trkpt lat="48.36869" lon="2.73647">
        <ele>109</ele>
        <time>2017-03-05T15:08:21Z</time>
      </trkpt>
      <trkpt lat="48.36884" lon="2.73664">
        <ele>110</ele>
        <time>2017-03-05T15:08:26Z</time>
      </trkpt>
      <trkpt lat="48.36897" lon="2.73687">
        <ele>112</ele>
        <time>2017-03-05T15:08:31Z</time>
      </trkpt>
      <trkpt lat="48.36912" lon="2.73703">
        <ele>114</ele>
        <time>2017-03-05T15:08:36Z</time>
      </trkpt>
      <trkpt lat="48.36927" lon="2.73718">
        <ele>116</ele>
        <time>2017-03-05T15:08:41Z</time>
      </trkpt>
      <trkpt lat="48.36943" lon="2.7373">
        <ele>117</ele>
        <time>2017-03-05T15:08:46Z</time>
      </trkpt>
      <trkpt lat="48.36961" lon="2.7374">
        <ele>118</ele>
        <time>2017-03-05T15:08:51Z</time>
      </trkpt>
      <trkpt lat="48.36975" lon="2.73758">
        <ele>120</ele>
        <time>2017-03-05T15:08:56Z</time>
      </trkpt>
      <trkpt lat="48.36979" lon="2.73786">
        <ele>123</ele>
        <time>2017-03-05T15:09:01Z</time>
      </trkpt>
      <trkpt lat="48.36979" lon="2.73822">
        <ele>126</ele>
        <time>2017-03-05T15:09:06Z</time>
      </trkpt>
      <trkpt lat="48.36962" lon="2.73819">
        <ele>125</ele>
        <time>2017-03-05T15:09:11Z</time>
      </trkpt>
      <trkpt lat="48.36948" lon="2.73836">
        <ele>126</ele>
        <time>2017-03-05T15:09:16Z</time>
      </trkpt>
      <trkpt lat="48.36943" lon="2.73863">
        <ele>127</ele>
        <time>2017-03-05T15:09:21Z</time>
      </trkpt>
      <trkpt lat="48.36936" lon="2.73888">
        <ele>129</ele>
        <time>2017-03-05T15:09:26Z</time>
      </trkpt>
      <trkpt lat="48.36926" lon="2.73918">
        <ele>130</ele>
        <time>2017-03-05T15:09:31Z</time>
      </trkpt>
      <trkpt lat="48.3692" lon="2.73946">
        <ele>131</ele>
        <time>2017-03-05T15:09:36Z</time>
      </trkpt>
      <trkpt lat="48.36914" lon="2.73972">
        <ele>132</ele>
        <time>2017-03-05T15:09:41Z</time>
      </trkpt>
      <trkpt lat="48.36907" lon="2.73999">
        <ele>132</ele>
        <time>2017-03-05T15:09:46Z</time>
      </trkpt>
      <trkpt lat="48.369" lon="2.74025">
        <ele>132</ele>
        <time>2017-03-05T15:09:51Z</time>
      </trkpt>
      <trkpt lat="48.36893" lon="2.7405">
        <ele>132</ele>
        <time>2017-03-05T15:09:56Z</time>
      </trkpt>
      <trkpt lat="48.36883" lon="2.74103">
        <ele>132</ele>
        <time>2017-03-05T15:10:01Z</time>
      </trkpt>
      <trkpt lat="48.36873" lon="2.74151">
        <ele>131</ele>
        <time>2017-03-05T15:10:06Z</time>
      </trkpt>
      <trkpt lat="48.36867" lon="2.74181">
        <ele>131</ele>
        <time>2017-03-05T15:10:11Z</time>
      </trkpt>
      <trkpt lat="48.36858" lon="2.74203">
        <ele>131</ele>
        <time>2017-03-05T15:10:16Z</time>
      </trkpt>
      <trkpt lat="48.36854" lon="2.74233">
        <ele>131</ele>
        <time>2017-03-05T15:10:21Z</time>
      </trkpt>
      <trkpt lat="48.3685" lon="2.7426">
        <ele>131</ele>
        <time>2017-03-05T15:10:26Z</time>
      </trkpt>
      <trkpt lat="48.36846" lon="2.74288">
        <ele>131</ele>
        <time>2017-03-05T15:10:31Z</time>
      </trkpt>
      <trkpt lat="48.36844" lon="2.7432">
        <ele>131</ele>
        <time>2017-03-05T15:10:36Z</time>
      </trkpt>
      <trkpt lat="48.3685" lon="2.74347">
        <ele>131</ele>
        <time>2017-03-05T15:10:41Z</time>
      </trkpt>
      <trkpt lat="48.36858" lon="2.74373">
        <ele>131</ele>
        <time>2017-03-05T15:10:46Z</time>
      </trkpt>
      <trkpt lat="48.36866" lon="2.74398">
        <ele>132</ele>
        <time>2017-03-05T15:10:51Z</time>
      </trkpt>
      <trkpt lat="48.36871" lon="2.74426">
        <ele>131</ele>
        <time>2017-03-05T15:10:56Z</time>
      </trkpt>
      <trkpt lat="48.36877" lon="2.74455">
        <ele>131</ele>
        <time>2017-03-05T15:11:01Z</time>
      </trkpt>
      <trkpt lat="48.36899" lon="2.74459">
        <ele>133</ele>
        <time>2017-03-05T15:11:06Z</time>
      </trkpt>
      <trkpt lat="48.36916" lon="2.74459">
        <ele>134</ele>
        <time>2017-03-05T15:11:11Z</time>
      </trkpt>
      <trkpt lat="48.36932" lon="2.74461">
        <ele>133</ele>
        <time>2017-03-05T15:11:16Z</time>
      </trkpt>
      <trkpt lat="48.3695" lon="2.74462">
        <ele>133</ele>
        <time>2017-03-05T15:11:21Z</time>
      </trkpt>
      <trkpt lat="48.36967" lon="2.74462">
        <ele>132</ele>
        <time>2017-03-05T15:11:26Z</time>
      </trkpt>
      <trkpt lat="48.36989" lon="2.74457">
        <ele>131</ele>
        <time>2017-03-05T15:11:31Z</time>
      </trkpt>
      <trkpt lat="48.37003" lon="2.74454">
        <ele>130</ele>
        <time>2017-03-05T15:11:36Z</time>
      </trkpt>
      <trkpt lat="48.37025" lon="2.74435">
        <ele>125</ele>
        <time>2017-03-05T15:11:41Z</time>
      </trkpt>
      <trkpt lat="48.3704" lon="2.74437">
        <ele>123</ele>
        <time>2017-03-05T15:11:46Z</time>
      </trkpt>
      <trkpt lat="48.3706" lon="2.74441">
        <ele>119</ele>
        <time>2017-03-05T15:11:51Z</time>
      </trkpt>
      <trkpt lat="48.37079" lon="2.74439">
        <ele>116</ele>
        <time>2017-03-05T15:11:56Z</time>
      </trkpt>
      <trkpt lat="48.37098" lon="2.7445">
        <ele>114</ele>
        <time>2017-03-05T15:12:01Z</time>
      </trkpt>
      <trkpt lat="48.37117" lon="2.7445">
        <ele>111</ele>
        <time>2017-03-05T15:12:06Z</time>
      </trkpt>
      <trkpt lat="48.37131" lon="2.74444">
        <ele>109</ele>
        <time>2017-03-05T15:12:11Z</time>
      </trkpt>
      <trkpt lat="48.37166" lon="2.74436">
        <ele>104</ele>
        <time>2017-03-05T15:12:16Z</time>
      </trkpt>
      <trkpt lat="48.37178" lon="2.74436">
        <ele>103</ele>
        <time>2017-03-05T15:12:21Z</time>
      </trkpt>
      <trkpt lat="48.3722" lon="2.74436">
        <ele>99</ele>
        <time>2017-03-05T15:12:26Z</time>
      </trkpt>
      <trkpt lat="48.37226" lon="2.74462">
        <ele>98</ele>
        <time>2017-03-05T15:12:31Z</time>
      </trkpt>
      <trkpt lat="48.37213" lon="2.74522">
        <ele>100</ele>
        <time>2017-03-05T15:12:36Z</time>
      </trkpt>
      <trkpt lat="48.37194" lon="2.74518">
        <ele>102</ele>
        <time>2017-03-05T15:12:41Z</time>
      </trkpt>
      <trkpt lat="48.37188" lon="2.74494">
        <ele>103</ele>
        <time>2017-03-05T15:12:46Z</time>
      </trkpt>
      <trkpt lat="48.37162" lon="2.74543">
        <ele>107</ele>
        <time>2017-03-05T15:12:51Z</time>
      </trkpt>
      <trkpt lat="48.37136" lon="2.74559">
        <ele>110</ele>
        <time>2017-03-05T15:12:56Z</time>
      </trkpt>
      <trkpt lat="48.37168" lon="2.74572">
        <ele>106</ele>
        <time>2017-03-05T15:13:01Z</time>
      </trkpt>
      <trkpt lat="48.3719" lon="2.74568">
        <ele>102</ele>
        <time>2017-03-05T15:13:06Z</time>
      </trkpt>
      <trkpt lat="48.37184" lon="2.74595">
        <ele>103</ele>
        <time>2017-03-05T15:13:11Z</time>
      </trkpt>
      <trkpt lat="48.37216" lon="2.74609">
        <ele>98</ele>
        <time>2017-03-05T15:13:16Z</time>
      </trkpt>
      <trkpt lat="48.3722" lon="2.7466">
        <ele>96</ele>
        <time>2017-03-05T15:13:21Z</time>
      </trkpt>
      <trkpt lat="48.37242" lon="2.74658">
        <ele>94</ele>
        <time>2017-03-05T15:13:26Z</time>
      </trkpt>
      <trkpt lat="48.3726" lon="2.74663">
        <ele>93</ele>
        <time>2017-03-05T15:13:31Z</time>
      </trkpt>
      <trkpt lat="48.37278" lon="2.74664">
        <ele>93</ele>
        <time>2017-03-05T15:13:36Z</time>
      </trkpt>
      <trkpt lat="48.37287" lon="2.7467">
        <ele>93</ele>
        <time>2017-03-05T15:13:41Z</time>
      </trkpt>
      <trkpt lat="48.37288" lon="2.74713">
        <ele>93</ele>
        <time>2017-03-05T15:13:46Z</time>
      </trkpt>
      <trkpt lat="48.37286" lon="2.7474">
        <ele>93</ele>
        <time>2017-03-05T15:13:51Z</time>
      </trkpt>
      <trkpt lat="48.37285" lon="2.74769">
        <ele>94</ele>
        <time>2017-03-05T15:13:56Z</time>
      </trkpt>
      <trkpt lat="48.37285" lon="2.74794">
        <ele>94</ele>
        <time>2017-03-05T15:14:01Z</time>
      </trkpt>
      <trkpt lat="48.37282" lon="2.74922">
        <ele>95</ele>
        <time>2017-03-05T15:14:06Z</time>
      </trkpt>
    </trkseg>
  </trk>
</gpx>